Cumberland Foreside, ME

7:39 PM EST on December 08, 2016 (GMT -0500)
Pine Ridge Road | | Change Station

Elev 164 ft 43.74 °N, 70.21 °W | Updated 3 minutes ago

Partly Cloudy
Partly Cloudy
36.3 °F
Feels Like 34 °F
N
3.1
Wind Variable Wind from NNE
Gusts 10.6 mph

Today
High -- | Low -- °F
--% Chance of Precip.
Yesterday
High -- | Low -- °F
Precip. -- in
Pressure 29.76 in
Visibility 10.0 miles
Clouds Scattered Clouds 8000 ft
Windchill 34 °F
Dew Point 30 °F
Humidity 76%
Rainfall 0.05 in
Snow Depth Not available.
7:02 AM 4:03 PM
Waxing Gibbous, 68% visible
METAR KPWM 082351Z 00000KT 10SM SCT080 01/M04 A2975 RMK AO2 SLP076 T00111044 10056 20006 53007
Pressure 29.76 in
Visibility 10.0 miles
Clouds Scattered Clouds 8000 ft
Windchill 34 °F
Dew Point 30 °F
Humidity 76%
Rainfall 0.05 in
Snow Depth Not available.
7:02 AM 4:03 PM
Waxing Gibbous, 68% visible
METAR KPWM 082351Z 00000KT 10SM SCT080 01/M04 A2975 RMK AO2 SLP076 T00111044 10056 20006 53007

10-Day Weather Forecast

Almanac

Astronomy

Dec. 08, 2016 Rise Set
Actual Time
Civil Twilight
Nautical Twilight
Astronomical Twilight
Moon
Length of Visible Light
Length of Day
Tomorrow will be .
, % of the Moon is Illuminated

Today's Extremes

State Highs State Lows

Community

WunderPhotos

Upload Photos

1,956,277 photos uploaded!

WunderBlog® & News

Nearby

Air Quality

  Air Quality AQ Index Pollutant
Not available.

Snow Depth

Station Depth Elevation

Earthquake Activity

City Distance Mag. Time & Date
Minimum magnitude displayed is 2.5.

Coastal Water Temperatures

Place Temperature

Stations

Nearby Weather Stations

Station Location Temp. Windchill Dew Point Humidity Wind Precip. Elev Updated Type
                   

Watches & Warnings

There are currently no watches in effect.